Zielona Gora, Poland
Current Conditions -  °F | °C
As of 5:00 PM on Wednesday 22 Oct 2014 (Local Time) from EPZG Reporting Station
Light Rain Light Rain  
Wind Chill: 48°   Ceiling: 2700
Heat Index: 48°   Visibility: 6mi
Dew Point: 48°   Wind: 2mph
Humidity: 100%   Direction: 270°W
Pressure: 29.68"   Gusts: NA
Location:  51.94°N, 15.49°E
Report Text: EPZG 221500Z 27002KT 9000 -RA FEW007 SCT011 OVC027 09/09 Q1005
Loading
Personal Weather Stations






























Interactive Weather Map
Tropical Storm Tracking
New forecast layout! Learn more

10-Day Weather Forecast

Advertisements
Track Severe Weather on mobile